Time;durP1;ratioP1;P1;durP2;ratioP2;P2;SDS_P1;SDS_P2;PMS_P1;PMS_P2;Temp;Humidity;BMP_temperature;BMP_pressure;BME280_temperature;BME280_humidity;BME280_pressure;Samples;Min_cycle;Max_cycle;Signal;HPM_P1;HPM_P2
2022/03/21 00:01:10;;;;;;;8.70;6.40;;;8.10;91.00;;;;;;4916881;29;20245;-60
2022/03/21 00:03:38;;;;;;;7.73;6.37;;;8.10;91.10;;;;;;4913787;29;20236;-60
2022/03/21 00:06:06;;;;;;;9.93;6.30;;;8.10;91.30;;;;;;4913704;29;20253;-60
2022/03/21 00:08:35;;;;;;;8.77;6.20;;;8.00;91.30;;;;;;4913203;29;20649;-60
2022/03/21 00:11:03;;;;;;;8.03;6.10;;;8.10;91.00;;;;;;4913821;29;20335;-60
2022/03/21 00:13:31;;;;;;;9.10;6.30;;;8.10;91.30;;;;;;4919308;29;20373;-60
2022/03/21 00:15:59;;;;;;;8.10;5.87;;;8.00;91.80;;;;;;4920544;29;20245;-60
2022/03/21 00:18:29;;;;;;;8.00;6.10;;;8.00;91.40;;;;;;4915472;29;20233;-60
2022/03/21 00:20:57;;;;;;;9.30;6.83;;;8.00;91.30;;;;;;4921504;29;20244;-60
2022/03/21 00:23:27;;;;;;;7.57;5.80;;;8.00;91.60;;;;;;4919906;29;20232;-60
2022/03/21 00:25:55;;;;;;;7.53;5.67;;;7.90;91.40;;;;;;4913875;29;20300;-60
2022/03/21 00:28:23;;;;;;;9.03;6.70;;;7.90;91.50;;;;;;4917362;29;20251;-60
2022/03/21 00:30:52;;;;;;;10.90;6.20;;;7.90;91.70;;;;;;4918609;29;20603;-59
2022/03/21 00:33:21;;;;;;;9.43;6.17;;;7.90;91.70;;;;;;4913585;29;20241;-60
2022/03/21 00:35:51;;;;;;;8.33;6.20;;;7.90;91.60;;;;;;4912188;29;20247;-60
2022/03/21 00:38:21;;;;;;;9.73;5.97;;;7.90;91.60;;;;;;4913301;29;20256;-60
2022/03/21 00:40:49;;;;;;;8.20;6.40;;;7.90;91.70;;;;;;4913365;29;20244;-60
2022/03/21 00:43:21;;;;;;;8.77;6.43;;;7.80;91.60;;;;;;4917408;29;20257;-60
2022/03/21 00:45:50;;;;;;;13.03;6.90;;;7.80;91.90;;;;;;4921826;29;20241;-60
2022/03/21 00:48:18;;;;;;;9.63;6.53;;;7.80;91.90;;;;;;4919877;29;20234;-60
2022/03/21 00:50:46;;;;;;;9.80;6.73;;;7.70;92.00;;;;;;4929030;29;20256;-60
2022/03/21 00:53:17;;;;;;;8.87;6.27;;;7.70;91.70;;;;;;4919477;29;20243;-60
2022/03/21 00:55:46;;;;;;;8.60;6.00;;;7.70;92.00;;;;;;4922576;29;20272;-60
2022/03/21 00:58:15;;;;;;;10.07;6.30;;;7.70;92.20;;;;;;4917274;29;20244;-60
2022/03/21 01:00:45;;;;;;;9.90;6.53;;;7.70;92.00;;;;;;4916803;29;20256;-60
2022/03/21 01:03:13;;;;;;;8.70;6.43;;;7.70;92.00;;;;;;4916547;29;20260;-60
2022/03/21 01:05:42;;;;;;;9.83;6.20;;;7.70;92.00;;;;;;4916637;29;20233;-60
2022/03/21 01:08:11;;;;;;;8.67;6.27;;;7.60;92.20;;;;;;4917934;29;20296;-60
2022/03/21 01:10:40;;;;;;;8.13;6.37;;;7.60;92.40;;;;;;4923096;29;20355;-60
2022/03/21 01:13:09;;;;;;;8.73;6.67;;;7.60;92.10;;;;;;4917852;29;20273;-60
2022/03/21 01:15:37;;;;;;;8.10;6.60;;;7.60;92.20;;;;;;4923162;29;20252;-60
2022/03/21 01:18:05;;;;;;;9.00;5.93;;;7.60;92.30;;;;;;4916593;29;20245;-60
2022/03/21 01:20:33;;;;;;;9.87;6.53;;;7.50;92.80;;;;;;4915994;29;20233;-60
2022/03/21 01:23:01;;;;;;;8.57;6.27;;;7.50;92.50;;;;;;4916530;29;20287;-60
2022/03/21 01:25:30;;;;;;;11.07;6.67;;;7.50;92.80;;;;;;4916127;29;20319;-60
2022/03/21 01:27:59;;;;;;;9.87;6.70;;;7.50;92.80;;;;;;4916503;29;20245;-60
2022/03/21 01:30:27;;;;;;;9.33;6.53;;;7.40;92.60;;;;;;4916020;29;20252;-60
2022/03/21 01:32:55;;;;;;;9.10;6.87;;;7.40;92.80;;;;;;4916447;29;20241;-60
2022/03/21 01:35:23;;;;;;;10.27;7.00;;;7.40;92.90;;;;;;4915689;29;20240;-60
2022/03/21 01:37:52;;;;;;;9.10;7.10;;;7.30;93.10;;;;;;4915894;29;20236;-60
2022/03/21 01:40:20;;;;;;;10.43;6.53;;;7.30;93.00;;;;;;4926544;29;20236;-60
2022/03/21 01:42:48;;;;;;;8.97;6.63;;;7.30;93.10;;;;;;4916633;29;20603;-60
2022/03/21 01:45:19;;;;;;;9.60;6.87;;;7.40;93.10;;;;;;4919420;29;20646;-60
2022/03/21 01:47:48;;;;;;;9.37;6.90;;;7.30;93.00;;;;;;4916260;29;20240;-60
2022/03/21 01:50:16;;;;;;;8.60;6.70;;;7.30;92.90;;;;;;4916253;29;20252;-60
2022/03/21 01:52:45;;;;;;;9.50;7.23;;;7.30;93.10;;;;;;4916067;29;20247;-60
2022/03/21 01:58:15;;;;;;;9.07;6.93;;;7.30;93.10;;;;;;4857765;29;20245;-60
2022/03/21 02:00:46;;;;;;;9.33;7.10;;;7.20;93.40;;;;;;4857673;29;20253;-60
2022/03/21 02:03:15;;;;;;;9.83;7.33;;;7.20;93.50;;;;;;4877391;29;20838;-60
2022/03/21 02:05:45;;;;;;;8.63;7.17;;;7.20;93.50;;;;;;4915124;29;20233;-60
2022/03/21 02:08:15;;;;;;;9.83;7.43;;;7.10;93.50;;;;;;4915163;29;20271;-60
2022/03/21 02:10:43;;;;;;;9.33;6.90;;;7.10;93.60;;;;;;4915456;29;20319;-60
2022/03/21 02:13:12;;;;;;;8.63;7.30;;;7.10;93.70;;;;;;4915242;29;20244;-60
2022/03/21 02:15:40;;;;;;;8.80;7.07;;;7.10;93.80;;;;;;4915064;29;20242;-60
2022/03/21 02:18:12;;;;;;;10.10;7.37;;;7.00;94.10;;;;;;4916964;29;20331;-60
2022/03/21 02:20:42;;;;;;;8.70;6.57;;;7.00;94.40;;;;;;4921505;29;20295;-60
2022/03/21 02:23:17;;;;;;;11.57;7.53;;;7.00;94.20;;;;;;4917089;29;20255;-60
2022/03/21 02:25:48;;;;;;;9.23;7.20;;;7.00;94.10;;;;;;4922170;29;20359;-60
2022/03/21 02:28:17;;;;;;;10.07;7.17;;;7.00;94.20;;;;;;4917697;29;20284;-60
2022/03/21 02:30:47;;;;;;;10.17;7.00;;;7.00;94.50;;;;;;4922012;29;20240;-60
2022/03/21 02:33:18;;;;;;;10.47;7.47;;;6.90;94.40;;;;;;4915108;29;20268;-60
2022/03/21 02:35:47;;;;;;;10.20;7.13;;;6.80;94.80;;;;;;4914858;29;20236;-60
2022/03/21 02:38:18;;;;;;;9.97;7.13;;;6.80;94.60;;;;;;4914912;29;20324;-60
2022/03/21 02:40:48;;;;;;;10.47;7.07;;;6.80;94.80;;;;;;4914817;29;20328;-60
2022/03/21 02:43:16;;;;;;;11.50;7.53;;;6.80;94.90;;;;;;4914862;29;20236;-60
2022/03/21 02:45:44;;;;;;;9.50;7.43;;;6.80;94.70;;;;;;4914543;29;20237;-60
2022/03/21 02:48:13;;;;;;;10.03;7.57;;;6.80;94.60;;;;;;4914710;29;20267;-60
2022/03/21 02:50:49;;;;;;;9.83;7.03;;;6.80;94.50;;;;;;4914508;29;20241;-61
2022/03/21 02:53:20;;;;;;;15.07;7.73;;;6.70;95.60;;;;;;4917148;29;20354;-60
2022/03/21 02:55:54;;;;;;;10.10;7.77;;;6.70;94.60;;;;;;4921519;29;20709;-60
2022/03/21 02:58:22;;;;;;;10.60;7.53;;;6.70;95.00;;;;;;4917606;29;20266;-60
2022/03/21 03:00:51;;;;;;;10.10;7.33;;;6.70;94.90;;;;;;4921447;29;20271;-60
2022/03/21 03:03:19;;;;;;;11.20;8.07;;;6.70;94.70;;;;;;4914262;29;20236;-60
2022/03/21 03:05:47;;;;;;;9.80;7.53;;;6.70;94.90;;;;;;4898611;29;20292;-60
2022/03/21 03:08:15;;;;;;;9.50;7.93;;;6.70;94.90;;;;;;4914610;29;20240;-60
2022/03/21 03:10:43;;;;;;;9.50;7.87;;;6.70;95.10;;;;;;4914456;29;20237;-60
2022/03/21 03:13:13;;;;;;;11.07;7.97;;;6.70;95.20;;;;;;4914352;29;20269;-60
2022/03/21 03:15:41;;;;;;;9.47;7.80;;;6.60;95.20;;;;;;4914110;29;20251;-60
2022/03/21 03:18:09;;;;;;;10.00;7.30;;;6.60;95.30;;;;;;4915760;29;20332;-60
2022/03/21 03:20:37;;;;;;;10.40;7.97;;;6.60;96.70;;;;;;4931973;29;20232;-60
2022/03/21 03:23:07;;;;;;;10.20;7.67;;;6.60;95.50;;;;;;4915388;29;20267;-60
2022/03/21 03:25:36;;;;;;;11.27;7.97;;;6.60;95.50;;;;;;4915531;29;20240;-60
2022/03/21 03:28:05;;;;;;;10.23;7.43;;;6.50;95.70;;;;;;4915270;29;20249;-60
2022/03/21 03:30:35;;;;;;;11.47;7.40;;;6.50;95.70;;;;;;4932321;29;20243;-60
2022/03/21 03:33:04;;;;;;;11.60;7.20;;;6.50;95.60;;;;;;4914916;29;20248;-60
2022/03/21 03:35:32;;;;;;;10.20;8.00;;;6.50;95.70;;;;;;4919606;29;20232;-60
2022/03/21 03:38:00;;;;;;;10.23;7.73;;;6.40;95.60;;;;;;4914555;29;20752;-60
2022/03/21 03:40:29;;;;;;;12.73;8.53;;;6.50;95.70;;;;;;4914199;29;20784;-60
2022/03/21 03:42:57;;;;;;;9.77;7.87;;;6.40;95.70;;;;;;4898608;29;20241;-60
2022/03/21 03:45:26;;;;;;;11.60;8.60;;;6.40;95.90;;;;;;4914148;29;20239;-60
2022/03/21 03:47:55;;;;;;;12.47;8.20;;;6.40;96.00;;;;;;4914155;29;20252;-60
2022/03/21 03:50:23;;;;;;;13.43;8.17;;;6.40;96.10;;;;;;4895294;29;20244;-60
2022/03/21 03:52:51;;;;;;;11.30;7.57;;;6.40;96.10;;;;;;4914123;29;20241;-60
2022/03/21 03:55:20;;;;;;;11.10;8.37;;;6.30;96.10;;;;;;4914104;29;20638;-60
2022/03/21 03:57:48;;;;;;;11.03;8.30;;;6.30;96.30;;;;;;4895291;29;20237;-60
2022/03/21 04:00:18;;;;;;;11.67;7.83;;;6.30;96.30;;;;;;4913316;29;20236;-60
2022/03/21 04:05:34;;;;;;;13.40;8.70;;;6.20;96.40;;;;;;4913241;29;20243;-60
2022/03/21 04:08:02;;;;;;;11.53;8.03;;;6.20;96.30;;;;;;4914351;29;20286;-60
2022/03/21 04:10:30;;;;;;;12.47;8.70;;;6.10;96.50;;;;;;4914004;29;20645;-60
2022/03/21 04:12:58;;;;;;;11.17;8.23;;;6.20;96.50;;;;;;4913680;29;20283;-60
2022/03/21 04:15:26;;;;;;;11.83;8.00;;;6.20;96.40;;;;;;4926951;29;20716;-60
2022/03/21 04:17:59;;;;;;;11.30;8.63;;;6.10;96.60;;;;;;4915717;29;20247;-60
2022/03/21 04:20:29;;;;;;;11.80;8.07;;;6.10;96.70;;;;;;4917596;29;20724;-60
2022/03/21 04:22:58;;;;;;;11.70;8.80;;;6.00;96.70;;;;;;4917540;29;20244;-60
2022/03/21 04:25:26;;;;;;;15.43;9.90;;;6.00;96.70;;;;;;4917508;29;20788;-60
2022/03/21 04:27:55;;;;;;;12.63;9.23;;;6.00;96.80;;;;;;4917114;29;20256;-60
2022/03/21 04:30:23;;;;;;;13.47;9.13;;;6.00;96.80;;;;;;4924810;29;20250;-60
2022/03/21 04:32:51;;;;;;;11.17;8.77;;;6.00;96.90;;;;;;4917599;29;20300;-60
2022/03/21 04:35:19;;;;;;;13.43;9.47;;;5.90;96.90;;;;;;4917087;29;20243;-61
2022/03/21 04:37:48;;;;;;;11.77;9.33;;;6.00;97.00;;;;;;4917087;29;20243;-60
2022/03/21 04:40:17;;;;;;;13.83;10.07;;;5.90;96.90;;;;;;4917184;29;20243;-60
2022/03/21 04:42:45;;;;;;;12.83;9.40;;;5.90;97.10;;;;;;4917024;29;20725;-60
2022/03/21 04:45:13;;;;;;;13.57;10.27;;;5.90;97.30;;;;;;4916849;29;20233;-60
2022/03/21 04:47:41;;;;;;;12.60;9.27;;;5.90;97.40;;;;;;4916604;29;21240;-60
2022/03/21 04:50:10;;;;;;;11.97;9.17;;;5.90;97.50;;;;;;4916474;29;20233;-60
2022/03/21 04:52:38;;;;;;;12.07;9.43;;;5.90;97.50;;;;;;4916127;29;20293;-60
2022/03/21 04:55:08;;;;;;;12.07;9.13;;;5.90;97.70;;;;;;4916202;29;20237;-60
2022/03/21 04:57:43;;;;;;;16.20;9.50;;;5.90;97.70;;;;;;4915988;29;20306;-60
2022/03/21 05:00:13;;;;;;;13.07;9.73;;;5.90;97.70;;;;;;4915995;29;20237;-60
2022/03/21 05:02:41;;;;;;;12.17;9.20;;;5.90;97.90;;;;;;4915853;29;20235;-60
2022/03/21 05:05:10;;;;;;;13.30;9.50;;;5.90;98.30;;;;;;4916059;29;20236;-60
2022/03/21 05:07:42;;;;;;;12.27;9.50;;;5.90;98.10;;;;;;4915998;29;20268;-60
2022/03/21 05:10:10;;;;;;;11.57;8.83;;;5.90;98.10;;;;;;4918285;29;20708;-60
2022/03/21 05:12:38;;;;;;;13.53;9.20;;;5.80;98.10;;;;;;4915928;29;20315;-60
2022/03/21 05:15:09;;;;;;;11.23;8.97;;;5.60;98.50;;;;;;4915004;29;20240;-60
2022/03/21 05:17:38;;;;;;;13.77;9.23;;;5.60;99.60;;;;;;4915573;29;20232;-60
2022/03/21 05:20:14;;;;;;;13.50;9.87;;;5.70;98.70;;;;;;4924742;29;20741;-60
2022/03/21 05:22:43;;;;;;;11.90;9.03;;;5.70;98.70;;;;;;4915837;29;20562;-60
2022/03/21 05:30:59;;;;;;;13.20;9.77;;;5.60;98.80;;;;;;4921644;29;20693;-60
2022/03/21 05:36:13;;;;;;;14.83;9.63;;;5.60;99.20;;;;;;4915940;29;20717;-60
2022/03/21 05:38:41;;;;;;;13.53;9.63;;;5.60;99.20;;;;;;4915838;29;20469;-60
2022/03/21 05:41:10;;;;;;;12.83;9.30;;;5.50;99.20;;;;;;4916238;29;20244;-60
2022/03/21 05:43:38;;;;;;;12.17;9.20;;;5.50;99.80;;;;;;4902631;29;20240;-60
2022/03/21 05:46:08;;;;;;;13.00;9.63;;;5.50;99.90;;;;;;4916264;29;20668;-60
2022/03/21 05:48:52;;;;;;;13.50;9.90;;;5.60;99.90;;;;;;4915583;29;20602;-60
2022/03/21 05:51:22;;;;;;;12.93;9.63;;;5.60;99.90;;;;;;4915587;29;20241;-60
2022/03/21 05:53:51;;;;;;;11.30;8.80;;;5.60;99.90;;;;;;4912645;29;20333;-60
2022/03/21 05:56:21;;;;;;;13.83;9.80;;;5.60;99.90;;;;;;4920913;29;20232;-60
2022/03/21 05:58:49;;;;;;;12.87;9.83;;;5.70;99.90;;;;;;4916136;29;20323;-60
2022/03/21 06:01:22;;;;;;;14.20;9.93;;;5.70;99.90;;;;;;4919948;29;20469;-60
2022/03/21 06:03:52;;;;;;;14.30;10.40;;;5.70;99.50;;;;;;4918433;29;20240;-60
2022/03/21 06:06:21;;;;;;;14.07;10.37;;;5.70;99.90;;;;;;4916947;29;20236;-60
2022/03/21 06:08:50;;;;;;;13.57;10.10;;;5.60;99.90;;;;;;4913985;29;20708;-60
2022/03/21 06:11:18;;;;;;;13.17;9.33;;;5.70;99.90;;;;;;4914868;29;20677;-60
2022/03/21 06:13:47;;;;;;;13.13;10.27;;;5.70;99.90;;;;;;4914432;29;20328;-60
2022/03/21 06:16:17;;;;;;;13.30;9.90;;;5.60;99.90;;;;;;4914730;29;20685;-60
2022/03/21 06:18:47;;;;;;;14.30;10.37;;;5.70;99.90;;;;;;4918605;29;20582;-60
2022/03/21 06:21:16;;;;;;;16.90;10.60;;;5.70;99.90;;;;;;4919466;29;20617;-60
2022/03/21 06:23:44;;;;;;;14.33;10.43;;;5.70;99.90;;;;;;4917656;29;20250;-60
2022/03/21 06:26:12;;;;;;;15.07;10.37;;;5.80;99.90;;;;;;4915009;29;20237;-60
2022/03/21 06:28:40;;;;;;;13.90;10.40;;;5.90;99.90;;;;;;4914446;29;20225;-60
2022/03/21 06:31:08;;;;;;;12.93;10.40;;;5.90;99.90;;;;;;4916870;29;20267;-61
2022/03/21 06:33:37;;;;;;;15.50;10.53;;;5.90;99.90;;;;;;4913867;29;20314;-60
2022/03/21 06:36:06;;;;;;;13.67;10.20;;;6.00;99.90;;;;;;4913475;29;20248;-60
2022/03/21 06:38:35;;;;;;;13.17;9.97;;;6.00;99.90;;;;;;4912169;29;20236;-60
2022/03/21 06:41:04;;;;;;;17.73;10.93;;;6.00;99.90;;;;;;4913982;29;20258;-60
2022/03/21 06:43:32;;;;;;;15.43;11.03;;;6.00;99.90;;;;;;4915989;29;20716;-60
2022/03/21 06:46:05;;;;;;;16.23;10.70;;;6.00;99.90;;;;;;4914196;29;20717;-60
2022/03/21 06:48:35;;;;;;;15.70;11.23;;;6.00;99.90;;;;;;4916785;29;20319;-60
2022/03/21 06:51:03;;;;;;;16.17;10.63;;;6.00;99.90;;;;;;4918386;29;20240;-60
2022/03/21 06:53:33;;;;;;;14.20;10.00;;;6.10;99.90;;;;;;4915473;29;20366;-60
2022/03/21 06:56:01;;;;;;;15.40;10.33;;;6.20;99.90;;;;;;4917467;29;20237;-60
2022/03/21 06:58:30;;;;;;;17.37;10.87;;;6.30;99.90;;;;;;4917362;29;20232;-60
2022/03/21 07:00:58;;;;;;;11.97;9.43;;;6.40;99.90;;;;;;4918174;29;20248;-60
2022/03/21 07:03:26;;;;;;;13.63;10.53;;;6.60;99.90;;;;;;4913443;29;20228;-60
2022/03/21 07:05:55;;;;;;;14.40;10.63;;;6.70;99.90;;;;;;4912284;29;20705;-60
2022/03/21 07:08:29;;;;;;;13.20;9.87;;;6.80;99.90;;;;;;4912182;29;20286;-60
2022/03/21 07:10:59;;;;;;;13.10;9.77;;;7.00;99.90;;;;;;4913949;29;20240;-60
2022/03/21 07:13:27;;;;;;;13.00;10.70;;;7.20;99.90;;;;;;4913130;29;20657;-60
2022/03/21 07:15:56;;;;;;;15.87;10.77;;;7.30;99.90;;;;;;4913285;29;20236;-60
2022/03/21 07:18:25;;;;;;;14.53;10.80;;;7.40;99.90;;;;;;4914763;29;20239;-60
2022/03/21 07:20:53;;;;;;;15.30;11.17;;;7.50;99.90;;;;;;4919948;29;20240;-60
2022/03/21 07:23:21;;;;;;;17.33;11.37;;;7.60;99.90;;;;;;4921131;29;20645;-60
2022/03/21 07:25:49;;;;;;;13.20;10.80;;;7.70;99.90;;;;;;4921767;29;20594;-60
2022/03/21 07:28:19;;;;;;;13.70;11.00;;;7.80;99.70;;;;;;4917940;29;20249;-60
2022/03/21 07:31:09;;;;;;;13.50;10.20;;;7.80;99.30;;;;;;4917566;29;20713;-60
2022/03/21 07:33:38;;;;;;;14.97;10.00;;;7.80;99.00;;;;;;4906125;29;20231;-60
2022/03/21 07:36:07;;;;;;;12.97;10.73;;;7.90;99.10;;;;;;4921068;29;20276;-60
2022/03/21 07:38:35;;;;;;;14.53;11.23;;;8.20;99.60;;;;;;4914085;29;20267;-60
2022/03/21 07:41:05;;;;;;;16.00;12.87;;;8.20;99.00;;;;;;4913519;29;20244;-60
2022/03/21 07:43:35;;;;;;;19.30;13.67;;;8.40;99.00;;;;;;4914041;29;20235;-60
2022/03/21 07:48:49;;;;;;;15.27;12.00;;;8.60;98.60;;;;;;4920238;29;20256;-60
2022/03/21 07:51:17;;;;;;;15.67;12.13;;;8.70;98.30;;;;;;4919456;29;20600;-60
2022/03/21 07:53:45;;;;;;;14.67;11.67;;;8.70;98.30;;;;;;4921331;29;20240;-60
2022/03/21 07:56:14;;;;;;;14.53;11.40;;;8.80;98.20;;;;;;4930672;29;20231;-60
2022/03/21 07:58:43;;;;;;;14.57;12.20;;;9.00;98.30;;;;;;4924643;29;21405;-60
2022/03/21 08:01:12;;;;;;;14.87;11.30;;;9.20;97.70;;;;;;4927982;29;20834;-60
2022/03/21 08:03:40;;;;;;;14.83;11.60;;;9.10;97.40;;;;;;4921861;29;20240;-60
2022/03/21 08:06:10;;;;;;;14.83;11.47;;;9.30;97.60;;;;;;4927572;29;20650;-60
2022/03/21 08:08:39;;;;;;;14.10;11.23;;;9.50;97.60;;;;;;4921042;29;20256;-60
2022/03/21 08:11:07;;;;;;;14.87;11.43;;;9.60;97.30;;;;;;4922259;29;20240;-60
2022/03/21 08:13:35;;;;;;;15.00;11.13;;;9.70;97.40;;;;;;4922547;29;20236;-60
2022/03/21 08:16:05;;;;;;;13.60;10.63;;;9.80;97.30;;;;;;4931344;29;20332;-60
2022/03/21 08:18:37;;;;;;;16.10;11.47;;;9.90;97.50;;;;;;4929556;29;20519;-60
2022/03/21 08:21:05;;;;;;;14.30;10.90;;;10.00;97.20;;;;;;4919683;29;20313;-60
2022/03/21 08:23:34;;;;;;;15.40;11.57;;;10.20;96.80;;;;;;4919290;29;20260;-60
2022/03/21 08:26:02;;;;;;;15.40;11.77;;;10.10;96.50;;;;;;4917943;29;20283;-60
2022/03/21 08:28:30;;;;;;;15.10;12.40;;;10.40;96.50;;;;;;4921758;29;20241;-59
2022/03/21 08:30:59;;;;;;;15.20;11.73;;;10.50;96.10;;;;;;4928469;29;20741;-60
2022/03/21 08:33:29;;;;;;;14.33;11.43;;;10.50;96.20;;;;;;4918101;29;20253;-60
2022/03/21 08:35:57;;;;;;;15.00;12.10;;;10.70;96.30;;;;;;4915160;29;20337;-60
2022/03/21 08:38:29;;;;;;;14.57;11.23;;;10.90;96.30;;;;;;4913329;29;20286;-60
2022/03/21 08:40:58;;;;;;;14.87;12.03;;;11.10;95.70;;;;;;4920615;29;20244;-60
2022/03/21 08:43:27;;;;;;;15.27;11.90;;;11.00;95.70;;;;;;4916860;29;20234;-61
2022/03/21 08:45:56;;;;;;;16.00;11.97;;;11.20;95.80;;;;;;4919490;29;20307;-60
2022/03/21 08:49:23;;;;;;;15.10;11.33;;;11.30;95.30;;;;;;4917079;29;20241;-60
2022/03/21 08:51:15;;;;;;;16.93;12.37;;;11.60;95.30;;;;;;4913752;29;20233;-61
2022/03/21 08:53:45;;;;;;;22.97;16.50;;;11.70;95.20;;;;;;4913067;29;20594;-60
2022/03/21 08:56:17;;;;;;;19.07;14.13;;;11.90;94.80;;;;;;4881783;29;20235;-60
2022/03/21 08:58:45;;;;;;;13.63;11.43;;;12.00;94.50;;;;;;4913994;29;20321;-61
2022/03/21 09:01:14;;;;;;;14.83;12.43;;;11.80;94.10;;;;;;4913465;29;20333;-60
2022/03/21 09:03:43;;;;;;;16.17;12.27;;;11.90;94.90;;;;;;4911615;29;20254;-60
2022/03/21 09:06:11;;;;;;;16.67;13.03;;;12.00;94.30;;;;;;4912034;29;20242;-60
2022/03/21 09:08:42;;;;;;;16.20;12.53;;;12.20;94.50;;;;;;4910871;29;20248;-60
2022/03/21 09:11:10;;;;;;;14.20;12.00;;;12.20;94.20;;;;;;4911325;29;20297;-61
2022/03/21 09:13:39;;;;;;;15.33;11.90;;;12.40;94.10;;;;;;4914260;29;20720;-60
2022/03/21 09:16:07;;;;;;;15.27;11.77;;;12.50;94.00;;;;;;4929581;29;20249;-60
2022/03/21 09:18:35;;;;;;;16.70;11.93;;;12.70;94.10;;;;;;4922697;29;20239;-60
2022/03/21 09:21:04;;;;;;;15.27;11.80;;;12.80;93.80;;;;;;4916547;29;20753;-60
2022/03/21 09:23:33;;;;;;;16.47;11.90;;;12.90;93.50;;;;;;4915579;29;20628;-60
2022/03/21 09:26:03;;;;;;;13.43;11.67;;;12.70;93.00;;;;;;4919235;29;20252;-60
2022/03/21 09:28:32;;;;;;;14.23;11.90;;;12.80;93.40;;;;;;4920810;29;20243;-60
2022/03/21 09:31:00;;;;;;;15.43;12.10;;;12.90;93.30;;;;;;4918393;29;20255;-60
2022/03/21 09:33:48;;;;;;;15.53;12.03;;;13.10;93.40;;;;;;4916781;29;20319;-60
2022/03/21 09:36:16;;;;;;;14.43;12.37;;;13.30;93.00;;;;;;4918437;29;20656;-60
2022/03/21 09:38:44;;;;;;;13.80;11.93;;;13.30;92.80;;;;;;4923298;29;20238;-60
2022/03/21 09:41:17;;;;;;;14.37;11.53;;;13.50;93.20;;;;;;4917265;29;20246;-60
2022/03/21 09:43:45;;;;;;;14.93;11.93;;;13.70;92.60;;;;;;4917742;29;20259;-60
2022/03/21 09:46:13;;;;;;;15.17;12.00;;;13.60;92.60;;;;;;4917430;29;20242;-60
2022/03/21 09:48:42;;;;;;;15.43;11.90;;;13.80;92.20;;;;;;4924840;29;20243;-60
2022/03/21 09:51:10;;;;;;;14.23;12.30;;;13.90;92.30;;;;;;4917421;29;20256;-59
2022/03/21 09:53:39;;;;;;;15.37;12.33;;;14.00;92.50;;;;;;4919944;29;20239;-60
2022/03/21 09:56:08;;;;;;;17.13;12.37;;;14.00;92.10;;;;;;4918057;29;20247;-59
2022/03/21 09:58:38;;;;;;;16.20;12.27;;;14.10;92.10;;;;;;4920561;29;20341;-60
2022/03/21 10:01:06;;;;;;;15.20;12.50;;;14.20;92.50;;;;;;4920559;29;20247;-60
2022/03/21 10:03:35;;;;;;;16.27;12.40;;;14.30;92.60;;;;;;4921288;29;20243;-59
2022/03/21 10:06:32;;;;;;;16.20;12.40;;;14.60;92.70;;;;;;4917085;29;20245;-60
2022/03/21 10:09:13;;;;;;;15.63;12.57;;;14.80;92.10;;;;;;4918364;29;20251;-60
2022/03/21 10:11:49;;;;;;;16.83;12.70;;;14.60;92.20;;;;;;4918621;29;20243;-60
2022/03/21 10:14:25;;;;;;;16.07;12.77;;;14.60;91.60;;;;;;4920893;29;20258;-60
2022/03/21 10:16:55;;;;;;;13.53;11.40;;;15.00;92.30;;;;;;4918497;29;20714;-60
2022/03/21 10:19:23;;;;;;;15.43;12.53;;;15.30;92.30;;;;;;4922052;29;20362;-60
2022/03/21 10:22:02;;;;;;;13.37;11.83;;;15.10;91.70;;;;;;4917374;29;20255;-60
2022/03/21 10:24:36;;;;;;;13.60;12.03;;;15.30;90.90;;;;;;4921068;29;20248;-60
2022/03/21 10:27:04;;;;;;;15.33;12.17;;;15.50;91.00;;;;;;4917986;29;20272;-60
2022/03/21 10:29:51;;;;;;;16.30;13.17;;;15.70;90.90;;;;;;4919201;29;20239;-60
2022/03/21 10:32:36;;;;;;;13.30;11.90;;;15.50;90.50;;;;;;4916843;29;20247;-60
2022/03/21 10:35:10;;;;;;;14.23;12.53;;;15.50;90.60;;;;;;4922844;29;20252;-59
2022/03/21 10:37:44;;;;;;;14.97;13.10;;;15.50;90.40;;;;;;4916549;29;20240;-60
2022/03/21 10:40:21;;;;;;;15.60;13.07;;;15.60;90.10;;;;;;4914437;29;20240;-60
2022/03/21 10:42:52;;;;;;;15.53;12.93;;;15.70;90.40;;;;;;4909819;29;20240;-59
2022/03/21 10:45:22;;;;;;;14.33;12.83;;;16.00;90.10;;;;;;4910915;29;20300;-60
2022/03/21 10:47:51;;;;;;;14.87;13.13;;;16.20;90.10;;;;;;4909774;29;20271;-60
2022/03/21 10:50:31;;;;;;;14.80;12.97;;;16.00;90.10;;;;;;4909120;29;20315;-60
2022/03/21 10:53:11;;;;;;;15.03;12.47;;;15.90;88.80;;;;;;4903922;29;20331;-60
2022/03/21 10:55:40;;;;;;;18.90;14.20;;;16.00;90.00;;;;;;4909938;29;20721;-60
2022/03/21 10:58:10;;;;;;;15.17;12.80;;;16.20;89.90;;;;;;4909353;29;20249;-60
2022/03/21 11:00:40;;;;;;;15.63;13.27;;;15.90;90.00;;;;;;4908781;29;20240;-60
2022/03/21 11:03:13;;;;;;;15.20;13.13;;;15.70;89.90;;;;;;4909161;29;20245;-60
2022/03/21 11:05:43;;;;;;;15.43;12.80;;;15.40;90.00;;;;;;4909924;29;20240;-60
2022/03/21 11:08:13;;;;;;;15.43;13.10;;;15.20;90.60;;;;;;4908972;29;20237;-60
2022/03/21 11:10:41;;;;;;;16.73;13.00;;;15.30;91.00;;;;;;4908754;29;20299;-60
2022/03/21 11:13:11;;;;;;;15.03;13.43;;;15.30;90.60;;;;;;4909602;29;20241;-60
2022/03/21 11:15:41;;;;;;;16.93;13.83;;;15.50;90.70;;;;;;4909587;29;20263;-59
2022/03/21 11:18:10;;;;;;;16.23;13.80;;;15.80;90.20;;;;;;4909294;29;20331;-60
2022/03/21 11:20:38;;;;;;;14.67;12.90;;;16.00;90.70;;;;;;4908732;29;20248;-60
2022/03/21 11:23:07;;;;;;;17.13;13.30;;;16.10;89.50;;;;;;4912902;29;20252;-60
2022/03/21 11:25:38;;;;;;;15.53;13.47;;;16.30;90.10;;;;;;4924196;29;20323;-60
2022/03/21 11:28:42;;;;;;;15.90;13.43;;;16.30;89.30;;;;;;4926815;29;20244;-60
2022/03/21 11:31:31;;;;;;;16.87;13.40;;;16.30;89.50;;;;;;4918480;29;20251;-60
2022/03/21 11:34:11;;;;;;;16.73;13.37;;;16.30;89.60;;;;;;4917414;29;20330;-59
2022/03/21 11:36:51;;;;;;;17.77;13.53;;;16.30;90.00;;;;;;4917979;29;20283;-60
2022/03/21 11:39:20;;;;;;;14.50;12.00;;;16.50;89.60;;;;;;4921735;29;20269;-60
2022/03/21 11:41:59;;;;;;;15.03;13.47;;;16.60;91.40;;;;;;4916074;29;20240;-60
2022/03/21 11:44:27;;;;;;;14.00;12.50;;;17.00;88.50;;;;;;4912132;29;20620;-60
2022/03/21 11:47:23;;;;;;;14.63;12.67;;;17.20;89.20;;;;;;4913221;29;20245;-59
2022/03/21 11:49:53;;;;;;;16.67;13.13;;;17.30;89.80;;;;;;4912580;29;20289;-60
2022/03/21 11:52:22;;;;;;;14.47;12.97;;;17.30;88.80;;;;;;4914276;29;20246;-60
2022/03/21 11:54:50;;;;;;;15.80;13.60;;;17.60;90.20;;;;;;4918804;29;20299;-60
2022/03/21 11:57:27;;;;;;;15.63;13.67;;;17.40;86.60;;;;;;4916642;29;20247;-60
2022/03/21 11:59:59;;;;;;;15.50;13.63;;;17.10;89.40;;;;;;4921389;29;20240;-60
2022/03/21 12:02:57;;;;;;;15.97;14.27;;;17.00;88.70;;;;;;4930320;29;20244;-60
2022/03/21 12:05:52;;;;;;;16.53;13.73;;;17.00;88.80;;;;;;4916102;29;20309;-60
2022/03/21 12:08:48;;;;;;;15.93;13.70;;;17.20;88.80;;;;;;4908039;29;20240;-60
2022/03/21 12:11:58;;;;;;;18.67;14.40;;;17.00;90.20;;;;;;4909324;29;20251;-60
2022/03/21 12:14:29;;;;;;;16.37;13.90;;;17.00;88.20;;;;;;4847333;29;20339;-59
2022/03/21 12:17:36;;;;;;;16.13;13.50;;;17.10;88.80;;;;;;4902148;29;20245;-60
2022/03/21 12:20:11;;;;;;;15.87;13.57;;;17.10;89.70;;;;;;4906515;29;20708;-60
2022/03/21 12:23:15;;;;;;;16.20;13.33;;;17.00;90.20;;;;;;4913524;29;20249;-60
2022/03/21 12:25:48;;;;;;;16.27;13.80;;;17.00;89.50;;;;;;4914467;29;20753;-60
2022/03/21 12:29:31;;;;;;;19.07;14.20;;;16.90;88.20;;;;;;4914060;29;20232;-60
2022/03/21 12:31:24;;;;;;;16.13;13.83;;;17.00;88.30;;;;;;4924644;29;20240;-60
2022/03/21 12:33:52;;;;;;;15.40;13.37;;;17.00;87.50;;;;;;4922192;29;20240;-60
2022/03/21 12:36:33;;;;;;;17.10;14.27;;;17.00;88.30;;;;;;4921548;29;20237;-60
2022/03/21 12:39:01;;;;;;;16.63;13.97;;;17.00;88.50;;;;;;4915557;29;20244;-60
2022/03/21 12:41:34;;;;;;;16.00;14.00;;;16.90;89.00;;;;;;4917048;29;20324;-60
2022/03/21 12:44:03;;;;;;;16.27;13.90;;;17.00;88.10;;;;;;4917189;29;20276;-60
2022/03/21 12:46:32;;;;;;;15.57;12.83;;;17.00;89.90;;;;;;4917085;29;20243;-60
2022/03/21 12:49:01;;;;;;;19.93;15.20;;;17.10;90.60;;;;;;4917181;29;20333;-60
2022/03/21 12:51:34;;;;;;;18.13;14.40;;;17.10;87.80;;;;;;4916894;29;20244;-60
2022/03/21 12:54:20;;;;;;;17.23;14.40;;;17.20;88.00;;;;;;4927705;29;20232;-60
2022/03/21 12:56:52;;;;;;;17.70;14.50;;;17.00;88.30;;;;;;4926837;29;20240;-60
2022/03/21 12:59:22;;;;;;;17.77;14.77;;;17.00;89.90;;;;;;4929853;29;20719;-60
2022/03/21 13:01:50;;;;;;;16.40;14.17;;;17.00;88.70;;;;;;4933389;29;20248;-60
2022/03/21 13:12:41;;;;;;;15.97;13.90;;;17.00;88.30;;;;;;4902791;29;20250;-60
2022/03/21 13:15:11;;;;;;;16.60;13.87;;;17.00;87.70;;;;;;4916761;29;20316;-60
2022/03/21 13:17:49;;;;;;;17.97;14.20;;;16.80;88.50;;;;;;4908973;29;20274;-60
2022/03/21 13:20:21;;;;;;;18.93;14.83;;;16.90;88.50;;;;;;4916232;29;20288;-59
2022/03/21 13:22:51;;;;;;;17.10;14.47;;;16.80;87.30;;;;;;4916612;29;20756;-59
2022/03/21 13:25:24;;;;;;;15.73;14.03;;;16.80;90.10;;;;;;4916221;29;20243;-60